sensor_id;sensor_type;location;lat;lon;timestamp;noise_LAeq;noise_LA_min;noise_LA_max;noise_LA01;noise_LA95
4048;Laerm;2038;51.728;6.674;2023-04-24T00:00:59;43.73;40.13;55.86;;
4048;Laerm;2038;51.728;6.674;2023-04-24T00:03:27;41.98;39.70;44.19;;
4048;Laerm;2038;51.728;6.674;2023-04-24T00:05:54;42.21;38.95;50.08;;
4048;Laerm;2038;51.728;6.674;2023-04-24T00:08:21;42.81;39.21;51.17;;
4048;Laerm;2038;51.728;6.674;2023-04-24T00:10:48;41.45;38.67;43.86;;
4048;Laerm;2038;51.728;6.674;2023-04-24T00:13:14;41.98;39.08;44.27;;
4048;Laerm;2038;51.728;6.674;2023-04-24T00:15:41;42.12;38.67;50.47;;
4048;Laerm;2038;51.728;6.674;2023-04-24T00:18:07;41.46;38.37;43.63;;
4048;Laerm;2038;51.728;6.674;2023-04-24T00:20:34;40.84;38.37;42.76;;
4048;Laerm;2038;51.728;6.674;2023-04-24T00:23:01;41.01;37.88;43.04;;
4048;Laerm;2038;51.728;6.674;2023-04-24T00:25:27;42.29;38.37;48.48;;
4048;Laerm;2038;51.728;6.674;2023-04-24T00:27:54;41.27;37.70;47.48;;
4048;Laerm;2038;51.728;6.674;2023-04-24T00:30:20;40.91;38.05;43.58;;
4048;Laerm;2038;51.728;6.674;2023-04-24T00:32:46;40.86;38.21;43.42;;
4048;Laerm;2038;51.728;6.674;2023-04-24T00:35:13;43.27;38.52;54.48;;
4048;Laerm;2038;51.728;6.674;2023-04-24T00:37:40;41.57;38.21;48.90;;
4048;Laerm;2038;51.728;6.674;2023-04-24T00:40:07;41.85;38.95;45.80;;
4048;Laerm;2038;51.728;6.674;2023-04-24T00:42:34;41.76;37.70;51.55;;
4048;Laerm;2038;51.728;6.674;2023-04-24T00:45:02;42.11;38.21;50.84;;
4048;Laerm;2038;51.728;6.674;2023-04-24T00:47:29;41.92;38.37;55.35;;
4048;Laerm;2038;51.728;6.674;2023-04-24T00:49:56;41.88;38.52;45.80;;
4048;Laerm;2038;51.728;6.674;2023-04-24T00:52:22;42.24;36.20;52.39;;
4048;Laerm;2038;51.728;6.674;2023-04-24T00:54:50;44.69;38.95;57.67;;
4048;Laerm;2038;51.728;6.674;2023-04-24T00:57:17;47.79;39.81;62.04;;
4048;Laerm;2038;51.728;6.674;2023-04-24T00:59:44;41.77;38.18;47.55;;
4048;Laerm;2038;51.728;6.674;2023-04-24T01:02:11;40.97;37.88;44.59;;
4048;Laerm;2038;51.728;6.674;2023-04-24T01:04:39;43.38;38.95;52.54;;
4048;Laerm;2038;51.728;6.674;2023-04-24T01:07:05;42.63;38.52;50.10;;
4048;Laerm;2038;51.728;6.674;2023-04-24T01:09:42;45.83;39.46;61.60;;
4048;Laerm;2038;51.728;6.674;2023-04-24T01:12:09;44.07;38.21;57.97;;
4048;Laerm;2038;51.728;6.674;2023-04-24T01:14:36;41.86;38.52;48.08;;
4048;Laerm;2038;51.728;6.674;2023-04-24T01:17:02;40.89;37.52;46.38;;
4048;Laerm;2038;51.728;6.674;2023-04-24T01:19:28;41.30;37.70;52.20;;
4048;Laerm;2038;51.728;6.674;2023-04-24T01:22:02;41.31;37.70;44.83;;
4048;Laerm;2038;51.728;6.674;2023-04-24T01:24:29;40.89;37.70;45.72;;
4048;Laerm;2038;51.728;6.674;2023-04-24T01:26:56;41.34;38.21;49.80;;
4048;Laerm;2038;51.728;6.674;2023-04-24T01:29:23;40.61;37.70;43.09;;
4048;Laerm;2038;51.728;6.674;2023-04-24T01:31:50;41.97;38.05;51.50;;
4048;Laerm;2038;51.728;6.674;2023-04-24T01:34:16;45.82;38.67;62.48;;
4048;Laerm;2038;51.728;6.674;2023-04-24T01:36:45;41.59;37.88;46.25;;
4048;Laerm;2038;51.728;6.674;2023-04-24T01:39:13;43.16;39.46;51.79;;
4048;Laerm;2038;51.728;6.674;2023-04-24T01:41:39;42.88;37.88;55.38;;
4048;Laerm;2038;51.728;6.674;2023-04-24T01:44:05;41.62;37.88;50.19;;
4048;Laerm;2038;51.728;6.674;2023-04-24T01:46:32;43.48;38.52;53.29;;
4048;Laerm;2038;51.728;6.674;2023-04-24T01:49:01;41.81;37.70;52.91;;
4048;Laerm;2038;51.728;6.674;2023-04-24T01:51:27;41.59;38.21;46.23;;
4048;Laerm;2038;51.728;6.674;2023-04-24T01:53:53;41.43;38.05;44.11;;
4048;Laerm;2038;51.728;6.674;2023-04-24T01:56:21;41.25;37.88;43.68;;
4048;Laerm;2038;51.728;6.674;2023-04-24T01:58:50;41.55;37.70;45.48;;
4048;Laerm;2038;51.728;6.674;2023-04-24T02:01:23;41.78;37.88;51.70;;
4048;Laerm;2038;51.728;6.674;2023-04-24T02:03:49;40.95;37.70;48.37;;
4048;Laerm;2038;51.728;6.674;2023-04-24T02:06:16;42.34;38.52;48.21;;
4048;Laerm;2038;51.728;6.674;2023-04-24T02:08:42;41.37;37.88;44.51;;
4048;Laerm;2038;51.728;6.674;2023-04-24T02:11:12;40.64;37.88;44.03;;
4048;Laerm;2038;51.728;6.674;2023-04-24T02:13:38;42.50;36.45;52.02;;
4048;Laerm;2038;51.728;6.674;2023-04-24T02:16:04;42.22;38.05;49.08;;
4048;Laerm;2038;51.728;6.674;2023-04-24T02:18:30;43.16;38.52;54.92;;
4048;Laerm;2038;51.728;6.674;2023-04-24T02:20:56;43.64;38.37;57.89;;
4048;Laerm;2038;51.728;6.674;2023-04-24T02:23:23;43.68;38.81;57.63;;
4048;Laerm;2038;51.728;6.674;2023-04-24T02:25:49;42.93;39.08;55.25;;
4048;Laerm;2038;51.728;6.674;2023-04-24T02:28:15;41.17;38.21;43.81;;
4048;Laerm;2038;51.728;6.674;2023-04-24T02:30:42;41.88;38.67;53.79;;
4048;Laerm;2038;51.728;6.674;2023-04-24T02:33:08;45.68;38.52;59.51;;
4048;Laerm;2038;51.728;6.674;2023-04-24T02:35:34;42.76;38.47;56.40;;
4048;Laerm;2038;51.728;6.674;2023-04-24T02:38:00;41.58;38.21;52.16;;
4048;Laerm;2038;51.728;6.674;2023-04-24T02:40:26;41.64;38.21;55.10;;
4048;Laerm;2038;51.728;6.674;2023-04-24T02:42:52;41.12;37.70;44.43;;
4048;Laerm;2038;51.728;6.674;2023-04-24T02:45:19;41.20;37.70;49.97;;
4048;Laerm;2038;51.728;6.674;2023-04-24T02:47:45;40.93;38.05;42.88;;
4048;Laerm;2038;51.728;6.674;2023-04-24T02:50:11;42.52;38.21;60.14;;
4048;Laerm;2038;51.728;6.674;2023-04-24T02:52:37;41.05;38.37;43.54;;
4048;Laerm;2038;51.728;6.674;2023-04-24T02:55:04;41.49;38.05;46.15;;
4048;Laerm;2038;51.728;6.674;2023-04-24T02:57:31;41.00;38.05;43.14;;
4048;Laerm;2038;51.728;6.674;2023-04-24T02:59:57;41.72;38.37;52.98;;
4048;Laerm;2038;51.728;6.674;2023-04-24T03:02:23;41.71;38.05;49.85;;
4048;Laerm;2038;51.728;6.674;2023-04-24T03:04:49;44.62;38.67;55.74;;
4048;Laerm;2038;51.728;6.674;2023-04-24T03:07:15;41.22;37.70;44.23;;
4048;Laerm;2038;51.728;6.674;2023-04-24T03:09:42;47.96;38.21;62.82;;
4048;Laerm;2038;51.728;6.674;2023-04-24T03:12:08;46.61;38.05;60.39;;
4048;Laerm;2038;51.728;6.674;2023-04-24T03:14:34;44.72;39.46;58.11;;
4048;Laerm;2038;51.728;6.674;2023-04-24T03:17:00;44.84;38.52;59.64;;
4048;Laerm;2038;51.728;6.674;2023-04-24T03:19:27;46.46;38.81;60.65;;
4048;Laerm;2038;51.728;6.674;2023-04-24T03:21:53;41.71;38.81;47.63;;
4048;Laerm;2038;51.728;6.674;2023-04-24T03:24:19;45.67;39.21;60.74;;
4048;Laerm;2038;51.728;6.674;2023-04-24T03:26:46;42.67;38.67;53.84;;
4048;Laerm;2038;51.728;6.674;2023-04-24T03:29:12;48.37;38.81;66.27;;
4048;Laerm;2038;51.728;6.674;2023-04-24T03:31:39;43.71;38.67;58.71;;
4048;Laerm;2038;51.728;6.674;2023-04-24T03:34:05;42.87;39.46;53.53;;
4048;Laerm;2038;51.728;6.674;2023-04-24T03:36:31;46.11;39.21;61.37;;
4048;Laerm;2038;51.728;6.674;2023-04-24T03:38:57;42.33;39.46;55.07;;
4048;Laerm;2038;51.728;6.674;2023-04-24T03:41:24;49.95;39.58;65.05;;
4048;Laerm;2038;51.728;6.674;2023-04-24T03:43:50;48.45;39.34;64.98;;
4048;Laerm;2038;51.728;6.674;2023-04-24T03:46:16;46.27;39.92;60.80;;
4048;Laerm;2038;51.728;6.674;2023-04-24T03:48:42;50.32;39.34;67.08;;
4048;Laerm;2038;51.728;6.674;2023-04-24T03:51:09;49.80;39.58;63.31;;
4048;Laerm;2038;51.728;6.674;2023-04-24T03:53:35;50.11;39.81;62.30;;
4048;Laerm;2038;51.728;6.674;2023-04-24T03:56:01;47.09;39.46;61.78;;
4048;Laerm;2038;51.728;6.674;2023-04-24T03:58:28;50.53;38.95;64.57;;
4048;Laerm;2038;51.728;6.674;2023-04-24T04:00:54;51.70;39.46;64.60;;
4048;Laerm;2038;51.728;6.674;2023-04-24T04:03:22;46.52;39.34;60.07;;
4048;Laerm;2038;51.728;6.674;2023-04-24T04:05:49;47.45;39.58;58.16;;
4048;Laerm;2038;51.728;6.674;2023-04-24T04:08:15;49.58;39.70;62.76;;
4048;Laerm;2038;51.728;6.674;2023-04-24T04:10:41;50.33;39.21;70.37;;
4048;Laerm;2038;51.728;6.674;2023-04-24T04:13:07;46.33;38.95;58.47;;
4048;Laerm;2038;51.728;6.674;2023-04-24T04:15:34;50.92;38.21;63.95;;
4048;Laerm;2038;51.728;6.674;2023-04-24T04:18:00;49.11;39.81;68.09;;
4048;Laerm;2038;51.728;6.674;2023-04-24T04:20:26;50.19;39.92;63.26;;
4048;Laerm;2038;51.728;6.674;2023-04-24T04:22:52;48.16;38.95;58.31;;
4048;Laerm;2038;51.728;6.674;2023-04-24T04:25:18;45.39;38.21;58.39;;
4048;Laerm;2038;51.728;6.674;2023-04-24T04:27:46;45.53;39.46;61.56;;
4048;Laerm;2038;51.728;6.674;2023-04-24T04:30:14;46.45;38.95;66.52;;
4048;Laerm;2038;51.728;6.674;2023-04-24T04:32:41;46.91;38.81;60.35;;
4048;Laerm;2038;51.728;6.674;2023-04-24T04:35:07;44.49;39.08;56.22;;
4048;Laerm;2038;51.728;6.674;2023-04-24T04:37:33;47.14;39.08;57.94;;
4048;Laerm;2038;51.728;6.674;2023-04-24T04:40:01;46.58;38.95;56.58;;
4048;Laerm;2038;51.728;6.674;2023-04-24T04:42:32;45.65;38.81;57.01;;
4048;Laerm;2038;51.728;6.674;2023-04-24T04:45:00;45.92;38.81;59.93;;
4048;Laerm;2038;51.728;6.674;2023-04-24T04:47:27;47.34;38.21;60.58;;
4048;Laerm;2038;51.728;6.674;2023-04-24T04:49:54;46.77;39.08;61.47;;
4048;Laerm;2038;51.728;6.674;2023-04-24T04:52:21;47.82;38.67;59.68;;
4048;Laerm;2038;51.728;6.674;2023-04-24T04:54:51;46.99;38.81;65.13;;
4048;Laerm;2038;51.728;6.674;2023-04-24T04:57:17;44.82;38.95;57.47;;
4048;Laerm;2038;51.728;6.674;2023-04-24T04:59:43;52.22;38.37;78.03;;
4048;Laerm;2038;51.728;6.674;2023-04-24T05:02:09;46.45;38.37;62.04;;
4048;Laerm;2038;51.728;6.674;2023-04-24T05:04:36;48.32;39.46;61.03;;
4048;Laerm;2038;51.728;6.674;2023-04-24T05:07:02;49.90;38.95;65.03;;
4048;Laerm;2038;51.728;6.674;2023-04-24T05:09:29;49.22;39.08;63.02;;
4048;Laerm;2038;51.728;6.674;2023-04-24T05:11:55;48.42;40.13;60.00;;
4048;Laerm;2038;51.728;6.674;2023-04-24T05:14:22;46.86;38.95;60.34;;
4048;Laerm;2038;51.728;6.674;2023-04-24T05:16:48;43.90;38.52;56.80;;
4048;Laerm;2038;51.728;6.674;2023-04-24T05:19:15;48.38;39.92;58.64;;
4048;Laerm;2038;51.728;6.674;2023-04-24T05:21:41;46.68;39.34;58.11;;
4048;Laerm;2038;51.728;6.674;2023-04-24T05:24:07;46.49;39.08;58.44;;
4048;Laerm;2038;51.728;6.674;2023-04-24T05:26:34;45.49;39.21;61.65;;
4048;Laerm;2038;51.728;6.674;2023-04-24T05:29:02;49.03;38.95;63.44;;
4048;Laerm;2038;51.728;6.674;2023-04-24T05:31:28;47.53;39.08;65.15;;
4048;Laerm;2038;51.728;6.674;2023-04-24T05:33:54;48.57;39.81;64.28;;
4048;Laerm;2038;51.728;6.674;2023-04-24T05:36:20;48.04;39.81;58.59;;
4048;Laerm;2038;51.728;6.674;2023-04-24T05:38:46;46.84;39.70;56.87;;
4048;Laerm;2038;51.728;6.674;2023-04-24T05:41:13;48.27;40.03;61.38;;
4048;Laerm;2038;51.728;6.674;2023-04-24T05:43:39;48.99;40.03;60.77;;
4048;Laerm;2038;51.728;6.674;2023-04-24T05:46:05;46.79;39.46;59.57;;
4048;Laerm;2038;51.728;6.674;2023-04-24T05:48:31;45.89;39.08;57.69;;
4048;Laerm;2038;51.728;6.674;2023-04-24T05:50:58;50.84;39.08;65.28;;
4048;Laerm;2038;51.728;6.674;2023-04-24T05:53:24;45.81;39.08;60.79;;
4048;Laerm;2038;51.728;6.674;2023-04-24T05:55:50;47.35;39.21;60.23;;
4048;Laerm;2038;51.728;6.674;2023-04-24T05:58:16;47.15;39.81;57.99;;
4048;Laerm;2038;51.728;6.674;2023-04-24T06:00:42;45.61;38.95;56.81;;
4048;Laerm;2038;51.728;6.674;2023-04-24T06:03:10;46.58;39.08;61.06;;
4048;Laerm;2038;51.728;6.674;2023-04-24T06:05:36;46.54;39.08;58.30;;
4048;Laerm;2038;51.728;6.674;2023-04-24T06:08:02;44.57;39.46;58.96;;
4048;Laerm;2038;51.728;6.674;2023-04-24T06:10:29;47.26;39.11;62.46;;
4048;Laerm;2038;51.728;6.674;2023-04-24T06:12:55;46.76;39.34;56.68;;
4048;Laerm;2038;51.728;6.674;2023-04-24T06:15:29;43.58;38.95;57.83;;
4048;Laerm;2038;51.728;6.674;2023-04-24T06:17:57;46.29;39.08;58.60;;
4048;Laerm;2038;51.728;6.674;2023-04-24T06:20:24;45.52;39.46;56.91;;
4048;Laerm;2038;51.728;6.674;2023-04-24T06:22:50;45.75;38.95;56.14;;
4048;Laerm;2038;51.728;6.674;2023-04-24T06:25:16;44.14;39.46;55.25;;
4048;Laerm;2038;51.728;6.674;2023-04-24T06:27:43;44.51;39.08;58.22;;
4048;Laerm;2038;51.728;6.674;2023-04-24T06:30:10;43.68;38.81;54.50;;
4048;Laerm;2038;51.728;6.674;2023-04-24T06:32:36;47.48;38.95;58.64;;
4048;Laerm;2038;51.728;6.674;2023-04-24T06:35:02;45.16;38.21;59.90;;
4048;Laerm;2038;51.728;6.674;2023-04-24T06:37:29;49.02;39.08;61.20;;
4048;Laerm;2038;51.728;6.674;2023-04-24T06:39:56;50.39;40.13;63.08;;
4048;Laerm;2038;51.728;6.674;2023-04-24T06:42:22;45.65;39.08;56.95;;
4048;Laerm;2038;51.728;6.674;2023-04-24T06:44:49;50.61;39.21;66.81;;
4048;Laerm;2038;51.728;6.674;2023-04-24T06:47:16;44.71;39.08;56.23;;
4048;Laerm;2038;51.728;6.674;2023-04-24T06:49:42;48.12;40.03;65.39;;
4048;Laerm;2038;51.728;6.674;2023-04-24T06:52:09;47.35;39.21;60.25;;
4048;Laerm;2038;51.728;6.674;2023-04-24T06:54:35;48.33;39.92;63.03;;
4048;Laerm;2038;51.728;6.674;2023-04-24T06:57:01;47.13;39.58;58.80;;
4048;Laerm;2038;51.728;6.674;2023-04-24T06:59:29;44.30;38.81;56.09;;
4048;Laerm;2038;51.728;6.674;2023-04-24T07:01:56;47.39;39.21;61.21;;
4048;Laerm;2038;51.728;6.674;2023-04-24T07:04:22;44.86;39.08;53.90;;
4048;Laerm;2038;51.728;6.674;2023-04-24T07:06:51;45.94;39.21;56.83;;
4048;Laerm;2038;51.728;6.674;2023-04-24T07:09:17;46.98;41.30;55.64;;
4048;Laerm;2038;51.728;6.674;2023-04-24T07:11:45;48.72;39.34;62.43;;
4048;Laerm;2038;51.728;6.674;2023-04-24T07:14:12;44.33;39.46;55.77;;
4048;Laerm;2038;51.728;6.674;2023-04-24T07:16:38;47.57;39.34;61.18;;
4048;Laerm;2038;51.728;6.674;2023-04-24T07:19:05;52.10;39.92;68.64;;
4048;Laerm;2038;51.728;6.674;2023-04-24T07:21:32;49.47;39.46;62.30;;
4048;Laerm;2038;51.728;6.674;2023-04-24T07:23:59;45.83;39.58;58.78;;
4048;Laerm;2038;51.728;6.674;2023-04-24T07:26:27;49.12;39.34;60.78;;
4048;Laerm;2038;51.728;6.674;2023-04-24T07:28:54;46.76;39.70;59.48;;
4048;Laerm;2038;51.728;6.674;2023-04-24T07:31:21;45.76;39.08;71.51;;
4048;Laerm;2038;51.728;6.674;2023-04-24T07:33:48;47.25;39.58;59.95;;
4048;Laerm;2038;51.728;6.674;2023-04-24T07:36:15;48.19;40.13;60.24;;
4048;Laerm;2038;51.728;6.674;2023-04-24T07:38:45;45.77;39.46;58.44;;
4048;Laerm;2038;51.728;6.674;2023-04-24T07:41:15;49.80;40.13;62.57;;
4048;Laerm;2038;51.728;6.674;2023-04-24T07:43:41;47.71;39.81;61.99;;
4048;Laerm;2038;51.728;6.674;2023-04-24T07:46:08;51.89;40.23;67.94;;
4048;Laerm;2038;51.728;6.674;2023-04-24T07:48:36;46.75;39.70;56.70;;
4048;Laerm;2038;51.728;6.674;2023-04-24T07:51:02;45.33;39.70;59.72;;
4048;Laerm;2038;51.728;6.674;2023-04-24T07:53:28;47.38;39.58;60.04;;
4048;Laerm;2038;51.728;6.674;2023-04-24T07:55:57;48.88;39.34;62.10;;
4048;Laerm;2038;51.728;6.674;2023-04-24T07:58:23;46.27;40.03;56.98;;
4048;Laerm;2038;51.728;6.674;2023-04-24T08:00:50;48.76;40.03;60.43;;
4048;Laerm;2038;51.728;6.674;2023-04-24T08:03:16;47.08;40.03;59.07;;
4048;Laerm;2038;51.728;6.674;2023-04-24T08:05:45;50.19;40.13;64.29;;
4048;Laerm;2038;51.728;6.674;2023-04-24T08:08:11;47.37;39.70;59.14;;
4048;Laerm;2038;51.728;6.674;2023-04-24T08:10:37;46.39;39.81;57.85;;
4048;Laerm;2038;51.728;6.674;2023-04-24T08:13:04;47.15;39.21;60.30;;
4048;Laerm;2038;51.728;6.674;2023-04-24T08:15:30;45.58;39.46;57.33;;
4048;Laerm;2038;51.728;6.674;2023-04-24T08:17:56;48.27;39.21;61.03;;
4048;Laerm;2038;51.728;6.674;2023-04-24T08:20:23;46.08;40.03;55.10;;
4048;Laerm;2038;51.728;6.674;2023-04-24T08:22:49;52.41;41.06;66.29;;
4048;Laerm;2038;51.728;6.674;2023-04-24T08:25:15;48.11;39.99;65.16;;
4048;Laerm;2038;51.728;6.674;2023-04-24T08:27:41;47.83;39.34;59.21;;
4048;Laerm;2038;51.728;6.674;2023-04-24T08:30:08;49.08;39.70;62.33;;
4048;Laerm;2038;51.728;6.674;2023-04-24T08:32:34;50.73;41.61;73.93;;
4048;Laerm;2038;51.728;6.674;2023-04-24T08:35:00;50.45;40.62;66.60;;
4048;Laerm;2038;51.728;6.674;2023-04-24T08:37:27;48.78;40.62;64.53;;
4048;Laerm;2038;51.728;6.674;2023-04-24T08:39:54;49.59;41.30;62.85;;
4048;Laerm;2038;51.728;6.674;2023-04-24T08:42:21;50.52;39.81;65.83;;
4048;Laerm;2038;51.728;6.674;2023-04-24T08:44:49;48.33;40.89;62.50;;
4048;Laerm;2038;51.728;6.674;2023-04-24T08:47:16;48.78;40.89;64.00;;
4048;Laerm;2038;51.728;6.674;2023-04-24T08:49:43;49.92;41.14;61.61;;
4048;Laerm;2038;51.728;6.674;2023-04-24T08:52:12;45.90;40.03;57.99;;
4048;Laerm;2038;51.728;6.674;2023-04-24T08:54:41;48.73;41.06;59.29;;
4048;Laerm;2038;51.728;6.674;2023-04-24T08:57:10;47.74;41.22;59.06;;
4048;Laerm;2038;51.728;6.674;2023-04-24T08:59:39;48.01;40.62;63.86;;
4048;Laerm;2038;51.728;6.674;2023-04-24T09:02:06;53.46;40.89;68.95;;
4048;Laerm;2038;51.728;6.674;2023-04-24T09:04:35;49.27;41.75;64.50;;
4048;Laerm;2038;51.728;6.674;2023-04-24T09:07:06;53.31;42.00;74.74;;
4048;Laerm;2038;51.728;6.674;2023-04-24T09:09:34;48.67;41.55;59.66;;
4048;Laerm;2038;51.728;6.674;2023-04-24T09:12:01;49.80;41.68;63.26;;
4048;Laerm;2038;51.728;6.674;2023-04-24T09:14:28;49.19;41.53;68.52;;
4048;Laerm;2038;51.728;6.674;2023-04-24T09:16:57;46.84;40.89;67.07;;
4048;Laerm;2038;51.728;6.674;2023-04-24T09:19:23;50.71;41.30;64.06;;
4048;Laerm;2038;51.728;6.674;2023-04-24T09:21:52;50.67;41.82;66.08;;
4048;Laerm;2038;51.728;6.674;2023-04-24T09:24:20;53.13;41.75;67.58;;
4048;Laerm;2038;51.728;6.674;2023-04-24T09:26:56;51.07;42.29;64.97;;
4048;Laerm;2038;51.728;6.674;2023-04-24T09:29:27;49.63;41.38;65.28;;
4048;Laerm;2038;51.728;6.674;2023-04-24T09:31:54;49.82;41.38;65.54;;
4048;Laerm;2038;51.728;6.674;2023-04-24T09:34:25;52.53;41.48;72.66;;
4048;Laerm;2038;51.728;6.674;2023-04-24T09:36:53;51.58;41.53;70.47;;
4048;Laerm;2038;51.728;6.674;2023-04-24T09:39:20;51.08;41.82;68.94;;
4048;Laerm;2038;51.728;6.674;2023-04-24T09:41:55;54.76;41.53;74.18;;
4048;Laerm;2038;51.728;6.674;2023-04-24T09:44:28;55.52;41.75;73.79;;
4048;Laerm;2038;51.728;6.674;2023-04-24T09:46:58;54.27;41.89;72.08;;
4048;Laerm;2038;51.728;6.674;2023-04-24T09:49:29;52.54;40.71;76.14;;
4048;Laerm;2038;51.728;6.674;2023-04-24T09:52:11;50.90;40.80;70.85;;
4048;Laerm;2038;51.728;6.674;2023-04-24T09:54:39;54.34;40.98;77.73;;
4048;Laerm;2038;51.728;6.674;2023-04-24T09:57:07;53.23;41.38;75.48;;
4048;Laerm;2038;51.728;6.674;2023-04-24T09:59:34;51.60;42.22;68.57;;
4048;Laerm;2038;51.728;6.674;2023-04-24T10:02:00;51.43;41.82;66.76;;
4048;Laerm;2038;51.728;6.674;2023-04-24T10:04:28;56.61;41.75;76.52;;
4048;Laerm;2038;51.728;6.674;2023-04-24T10:06:56;51.55;42.00;66.88;;
4048;Laerm;2038;51.728;6.674;2023-04-24T10:09:26;50.85;42.41;67.05;;
4048;Laerm;2038;51.728;6.674;2023-04-24T10:11:54;48.48;42.06;64.08;;
4048;Laerm;2038;51.728;6.674;2023-04-24T10:14:24;53.71;42.71;69.43;;
4048;Laerm;2038;51.728;6.674;2023-04-24T10:16:54;54.22;43.09;69.01;;
4048;Laerm;2038;51.728;6.674;2023-04-24T10:19:25;49.74;41.68;69.54;;
4048;Laerm;2038;51.728;6.674;2023-04-24T10:21:52;50.64;42.03;64.75;;
4048;Laerm;2038;51.728;6.674;2023-04-24T10:24:20;52.32;42.53;73.97;;
4048;Laerm;2038;51.728;6.674;2023-04-24T10:26:47;52.58;42.53;72.55;;
4048;Laerm;2038;51.728;6.674;2023-04-24T10:29:17;48.36;41.75;61.97;;
4048;Laerm;2038;51.728;6.674;2023-04-24T10:31:43;51.17;42.53;64.59;;
4048;Laerm;2038;51.728;6.674;2023-04-24T10:34:17;52.58;41.75;66.14;;
4048;Laerm;2038;51.728;6.674;2023-04-24T10:36:50;51.77;42.30;68.40;;
4048;Laerm;2038;51.728;6.674;2023-04-24T10:39:18;52.40;41.68;70.47;;
4048;Laerm;2038;51.728;6.674;2023-04-24T10:41:45;52.65;42.65;70.35;;
4048;Laerm;2038;51.728;6.674;2023-04-24T10:44:15;53.41;41.61;68.58;;
4048;Laerm;2038;51.728;6.674;2023-04-24T10:46:46;51.03;41.38;63.55;;
4048;Laerm;2038;51.728;6.674;2023-04-24T10:49:29;53.10;42.09;66.35;;
4048;Laerm;2038;51.728;6.674;2023-04-24T10:52:03;48.73;40.33;71.79;;
4048;Laerm;2038;51.728;6.674;2023-04-24T10:54:40;51.75;41.38;65.44;;
4048;Laerm;2038;51.728;6.674;2023-04-24T10:59:47;50.35;41.68;63.43;;
4048;Laerm;2038;51.728;6.674;2023-04-24T11:02:18;52.38;41.38;66.01;;
4048;Laerm;2038;51.728;6.674;2023-04-24T11:04:45;52.39;41.61;67.72;;
4048;Laerm;2038;51.728;6.674;2023-04-24T11:07:12;52.06;41.30;64.29;;
4048;Laerm;2038;51.728;6.674;2023-04-24T11:09:41;51.32;41.75;63.61;;
4048;Laerm;2038;51.728;6.674;2023-04-24T11:12:11;52.38;42.41;65.37;;
4048;Laerm;2038;51.728;6.674;2023-04-24T11:17:35;49.30;41.14;66.02;;
4048;Laerm;2038;51.728;6.674;2023-04-24T11:20:06;48.70;40.80;63.87;;
4048;Laerm;2038;51.728;6.674;2023-04-24T11:22:39;49.53;41.30;61.35;;
4048;Laerm;2038;51.728;6.674;2023-04-24T11:25:06;48.40;40.98;60.20;;
4048;Laerm;2038;51.728;6.674;2023-04-24T11:27:41;46.07;40.80;60.26;;
4048;Laerm;2038;51.728;6.674;2023-04-24T11:30:09;51.20;40.53;65.28;;
4048;Laerm;2038;51.728;6.674;2023-04-24T11:32:42;48.84;38.99;62.22;;
4048;Laerm;2038;51.728;6.674;2023-04-24T11:35:21;50.34;40.23;64.24;;
4048;Laerm;2038;51.728;6.674;2023-04-24T11:37:54;49.09;39.08;63.37;;
4048;Laerm;2038;51.728;6.674;2023-04-24T11:40:22;48.76;39.70;64.89;;
4048;Laerm;2038;51.728;6.674;2023-04-24T11:42:51;50.81;41.06;63.95;;
4048;Laerm;2038;51.728;6.674;2023-04-24T11:45:23;51.91;40.62;64.36;;
4048;Laerm;2038;51.728;6.674;2023-04-24T11:47:50;49.57;40.71;64.92;;
4048;Laerm;2038;51.728;6.674;2023-04-24T11:50:19;52.42;41.38;69.94;;
4048;Laerm;2038;51.728;6.674;2023-04-24T11:52:48;51.55;43.19;68.06;;
4048;Laerm;2038;51.728;6.674;2023-04-24T11:57:47;48.44;40.71;68.90;;
4048;Laerm;2038;51.728;6.674;2023-04-24T12:00:20;51.82;41.38;65.78;;
4048;Laerm;2038;51.728;6.674;2023-04-24T12:02:48;51.53;41.38;62.70;;
4048;Laerm;2038;51.728;6.674;2023-04-24T12:05:28;49.20;39.70;69.51;;
4048;Laerm;2038;51.728;6.674;2023-04-24T12:07:57;50.41;40.33;68.43;;
4048;Laerm;2038;51.728;6.674;2023-04-24T12:10:26;52.86;40.89;65.84;;
4048;Laerm;2038;51.728;6.674;2023-04-24T12:12:53;51.09;41.61;64.05;;
4048;Laerm;2038;51.728;6.674;2023-04-24T12:15:21;51.14;40.71;65.13;;
4048;Laerm;2038;51.728;6.674;2023-04-24T12:17:51;51.32;41.38;67.71;;
4048;Laerm;2038;51.728;6.674;2023-04-24T12:20:24;50.95;39.34;67.08;;
4048;Laerm;2038;51.728;6.674;2023-04-24T12:23:01;51.25;40.71;62.61;;
4048;Laerm;2038;51.728;6.674;2023-04-24T12:25:29;52.06;39.81;66.19;;
4048;Laerm;2038;51.728;6.674;2023-04-24T12:30:39;49.96;39.08;62.34;;
4048;Laerm;2038;51.728;6.674;2023-04-24T12:33:06;50.40;40.43;65.08;;
4048;Laerm;2038;51.728;6.674;2023-04-24T12:35:33;52.35;39.58;65.26;;
4048;Laerm;2038;51.728;6.674;2023-04-24T12:38:11;50.89;40.03;64.19;;
4048;Laerm;2038;51.728;6.674;2023-04-24T12:40:40;49.62;39.35;65.13;;
4048;Laerm;2038;51.728;6.674;2023-04-24T12:43:19;48.53;38.95;63.68;;
4048;Laerm;2038;51.728;6.674;2023-04-24T12:45:47;48.82;40.03;62.03;;
4048;Laerm;2038;51.728;6.674;2023-04-24T12:48:13;47.63;38.81;67.79;;
4048;Laerm;2038;51.728;6.674;2023-04-24T12:50:40;49.23;38.81;62.15;;
4048;Laerm;2038;51.728;6.674;2023-04-24T12:53:07;48.88;39.21;61.13;;
4048;Laerm;2038;51.728;6.674;2023-04-24T12:55:35;49.13;40.53;68.35;;
4048;Laerm;2038;51.728;6.674;2023-04-24T12:58:01;51.03;41.14;66.11;;
4048;Laerm;2038;51.728;6.674;2023-04-24T13:00:29;48.78;39.58;63.50;;
4048;Laerm;2038;51.728;6.674;2023-04-24T13:02:55;48.66;38.37;57.12;;
4048;Laerm;2038;51.728;6.674;2023-04-24T13:05:22;47.66;40.89;60.85;;
4048;Laerm;2038;51.728;6.674;2023-04-24T13:07:48;50.06;40.53;68.94;;
4048;Laerm;2038;51.728;6.674;2023-04-24T13:10:14;51.36;42.29;67.65;;
4048;Laerm;2038;51.728;6.674;2023-04-24T13:12:40;47.01;39.58;59.52;;
4048;Laerm;2038;51.728;6.674;2023-04-24T13:15:07;47.20;38.74;62.11;;
4048;Laerm;2038;51.728;6.674;2023-04-24T13:17:34;50.30;41.06;62.18;;
4048;Laerm;2038;51.728;6.674;2023-04-24T13:20:00;50.95;40.03;68.76;;
4048;Laerm;2038;51.728;6.674;2023-04-24T13:22:26;50.08;39.21;61.52;;
4048;Laerm;2038;51.728;6.674;2023-04-24T13:24:53;50.52;40.33;67.13;;
4048;Laerm;2038;51.728;6.674;2023-04-24T13:27:19;50.86;42.82;64.25;;
4048;Laerm;2038;51.728;6.674;2023-04-24T13:29:45;50.14;42.29;64.17;;
4048;Laerm;2038;51.728;6.674;2023-04-24T13:32:12;48.56;40.71;58.15;;
4048;Laerm;2038;51.728;6.674;2023-04-24T13:34:39;49.92;40.62;64.69;;
4048;Laerm;2038;51.728;6.674;2023-04-24T13:37:06;51.87;41.68;66.83;;
4048;Laerm;2038;51.728;6.674;2023-04-24T13:39:34;51.55;40.89;66.59;;
4048;Laerm;2038;51.728;6.674;2023-04-24T13:42:01;49.82;39.21;62.71;;
4048;Laerm;2038;51.728;6.674;2023-04-24T13:44:27;48.91;40.71;58.66;;
4048;Laerm;2038;51.728;6.674;2023-04-24T13:46:55;47.96;40.80;57.29;;
4048;Laerm;2038;51.728;6.674;2023-04-24T13:49:24;48.77;40.43;64.84;;
4048;Laerm;2038;51.728;6.674;2023-04-24T13:51:55;46.69;39.21;57.74;;
4048;Laerm;2038;51.728;6.674;2023-04-24T13:54:21;50.92;39.58;65.07;;
4048;Laerm;2038;51.728;6.674;2023-04-24T13:56:49;48.74;40.98;61.01;;
4048;Laerm;2038;51.728;6.674;2023-04-24T13:59:16;50.94;41.22;62.62;;
4048;Laerm;2038;51.728;6.674;2023-04-24T14:01:42;50.07;40.71;67.86;;
4048;Laerm;2038;51.728;6.674;2023-04-24T14:04:10;51.71;41.06;63.50;;
4048;Laerm;2038;51.728;6.674;2023-04-24T14:06:37;52.92;41.68;67.17;;
4048;Laerm;2038;51.728;6.674;2023-04-24T14:09:03;49.22;41.22;71.10;;
4048;Laerm;2038;51.728;6.674;2023-04-24T14:11:30;49.22;41.06;62.47;;
4048;Laerm;2038;51.728;6.674;2023-04-24T14:13:56;48.18;39.81;61.97;;
4048;Laerm;2038;51.728;6.674;2023-04-24T14:16:23;49.76;39.92;64.23;;
4048;Laerm;2038;51.728;6.674;2023-04-24T14:18:49;50.59;40.62;66.44;;
4048;Laerm;2038;51.728;6.674;2023-04-24T14:21:16;50.62;40.71;68.66;;